ENMS  Mosjøen Airport, Kjærstad Airport

Add Bookmark

Norway

Status IATA
Operational MJF
Latitude Longitude
65° 47' 2" N 13° 12' 53" E
65.783997 13.214900
Local (DST + 2) UTC (GMT + 1)
Jan 28, 2015 09:10 Jan 28, 2015 20:10
Sunrise-Sunset Local UTC
Begin Civil Twilight 08:06 07:06
Sunrise 09:10 08:10
Sunset 03:29 14:29
End Civil Twilight 04:34 15:34

Current Weather

METAR Observed MVFR
ENMS 281950Z VRB01KT 9999 FEW020 BKN028 01/00 Q0972 Wed, Jan 28, 2015 @ 19:50 UTC
(20 Minutes ago)
Marginal Visual Flight Rules
Wind Visibility Clouds Conditions
Varies at 1 kt (2 kph) 10 km or more
  • Few at 2,000' AGL
  • Broken at 2,800' AGL
  • No significant weather
Temperatures Readings Precipitation
Current Temp 1°C (34°F)
Dewpoint 0°C (32°F)
Humidity 93%
Altimeter 28.7"Hg
Sea Level Pressure 972mb
Field Elevation 229.66'
None Recorded

Additional weather within a 92.6km radius of ENMS

Map ICAO Location
ENST 38.9km W (300°)
ENBN 58.2km S (232°)
ENRA 80.9km N (037°)
ESUT 85.2km E (087°)

24 Hour Weather History

Loading
-

24 Hour Weather Graphs

Loading
-

CheckWX.com is intended as a tool to help pilots better visualize weather data. It is not intended as a substitute for an official weather briefing obtained from a Flight Service Station. CheckWX.com does not meet the FAA requirements for an official pre-flight weather briefing. Therefore, it's important that pilots still call and obtain an official FSS pre-flight weather briefing.